createdAt,value
2023-05-11T00:01:33.766Z,14.68
2023-05-11T00:04:00.918Z,14.56
2023-05-11T00:06:27.771Z,14.38
2023-05-11T00:08:54.594Z,14.19
2023-05-11T00:11:21.315Z,14.21
2023-05-11T00:13:48.010Z,14.17
2023-05-11T00:16:15.013Z,14.24
2023-05-11T00:18:41.870Z,14.33
2023-05-11T00:21:08.689Z,14.15
2023-05-11T00:23:35.404Z,14.07
2023-05-11T00:26:02.066Z,14.23
2023-05-11T00:28:28.720Z,14.47
2023-05-11T00:30:58.897Z,14.52
2023-05-11T00:33:26.076Z,14.64
2023-05-11T00:35:52.886Z,14.68
2023-05-11T00:38:19.673Z,14.77
2023-05-11T00:40:46.353Z,14.74
2023-05-11T00:43:13.512Z,14.61
2023-05-11T00:45:40.515Z,14.74
2023-05-11T00:48:07.573Z,14.76
2023-05-11T00:50:36.107Z,14.69
2023-05-11T00:53:03.355Z,14.57
2023-05-11T00:55:30.573Z,14.49
2023-05-11T00:57:57.623Z,14.62
2023-05-11T01:00:24.573Z,14.69
2023-05-11T01:02:52.110Z,14.67
2023-05-11T01:05:19.321Z,14.63
2023-05-11T01:08:01.792Z,14.60
2023-05-11T01:10:33.431Z,14.65
2023-05-11T01:13:42.730Z,14.63
2023-05-11T01:16:17.474Z,14.56
2023-05-11T01:19:12.606Z,14.56
2023-05-11T01:21:40.015Z,14.70
2023-05-11T01:24:09.792Z,14.60
2023-05-11T01:26:39.779Z,14.64
2023-05-11T01:29:25.433Z,14.66
2023-05-11T01:31:55.805Z,14.89
2023-05-11T01:34:25.535Z,14.95
2023-05-11T01:37:05.086Z,14.79
2023-05-11T01:39:38.378Z,14.99
2023-05-11T01:42:09.940Z,15.05
2023-05-11T01:44:42.297Z,15.00
2023-05-11T01:47:11.928Z,15.12
2023-05-11T01:49:42.346Z,15.08
2023-05-11T01:52:09.805Z,15.23
2023-05-11T01:54:38.963Z,15.25
2023-05-11T01:57:06.970Z,15.23
2023-05-11T01:59:35.807Z,15.33
2023-05-11T02:02:04.022Z,15.40
2023-05-11T02:04:31.749Z,15.40
2023-05-11T02:07:01.071Z,15.39
2023-05-11T02:09:31.341Z,15.34
2023-05-11T02:12:00.545Z,15.36
2023-05-11T02:14:29.350Z,15.40
2023-05-11T02:16:57.303Z,15.35
2023-05-11T02:19:25.785Z,15.42
2023-05-11T02:21:54.332Z,15.50
2023-05-11T02:24:22.289Z,15.48
2023-05-11T02:26:48.961Z,15.54
2023-05-11T02:29:16.193Z,15.54
2023-05-11T02:31:47.194Z,15.55
2023-05-11T02:34:37.206Z,15.57
2023-05-11T02:37:07.215Z,15.57
2023-05-11T02:39:38.128Z,15.68
2023-05-11T02:42:25.667Z,15.74
2023-05-11T02:45:03.238Z,15.76
2023-05-11T02:47:36.702Z,15.81
2023-05-11T02:50:05.838Z,15.76
2023-05-11T02:52:40.374Z,15.75
2023-05-11T02:55:08.435Z,15.73
2023-05-11T02:57:35.677Z,15.77
2023-05-11T03:00:08.351Z,15.69
2023-05-11T03:02:35.389Z,15.58
2023-05-11T03:05:02.531Z,15.66
2023-05-11T03:07:29.600Z,15.62
2023-05-11T03:09:56.302Z,15.57
2023-05-11T03:12:23.788Z,15.51
2023-05-11T03:14:52.337Z,15.55
2023-05-11T03:17:21.061Z,15.60
2023-05-11T03:19:48.677Z,15.72
2023-05-11T03:22:16.381Z,15.76
2023-05-11T03:24:44.642Z,15.81
2023-05-11T03:27:11.659Z,15.83
2023-05-11T03:29:43.672Z,15.81
2023-05-11T03:32:11.538Z,15.92
2023-05-11T03:34:39.167Z,15.97
2023-05-11T03:37:07.004Z,15.94
2023-05-11T03:39:37.047Z,15.82
2023-05-11T03:42:05.641Z,15.77
2023-05-11T03:44:35.001Z,15.79
2023-05-11T03:47:04.142Z,15.75
2023-05-11T03:49:31.486Z,15.76
2023-05-11T03:51:59.330Z,15.84
2023-05-11T03:54:26.995Z,15.83
2023-05-11T03:56:53.859Z,15.78
2023-05-11T03:59:21.103Z,15.83
2023-05-11T04:01:51.560Z,15.86
2023-05-11T04:04:19.142Z,15.88
2023-05-11T04:06:46.185Z,15.86
2023-05-11T04:09:19.051Z,15.89
2023-05-11T04:11:45.657Z,16.01
2023-05-11T04:14:12.341Z,16.03
2023-05-11T04:16:39.217Z,15.88
2023-05-11T04:19:07.263Z,15.82
2023-05-11T04:21:35.786Z,15.69
2023-05-11T04:24:03.420Z,15.88
2023-05-11T04:26:30.125Z,15.89
2023-05-11T04:28:56.818Z,15.99
2023-05-11T04:31:23.510Z,16.07
2023-05-11T04:33:50.270Z,15.96
2023-05-11T04:36:17.038Z,16.06
2023-05-11T04:38:44.142Z,16.04
2023-05-11T04:41:10.843Z,16.04
2023-05-11T04:43:39.481Z,16.01
2023-05-11T04:46:08.406Z,16.04
2023-05-11T04:48:35.154Z,16.10
2023-05-11T04:51:05.669Z,16.13
2023-05-11T04:53:34.439Z,15.87
2023-05-11T04:56:01.108Z,16.00
2023-05-11T04:58:27.848Z,16.19
2023-05-11T05:00:54.553Z,16.26
2023-05-11T05:03:21.273Z,16.29
2023-05-11T05:05:49.006Z,16.24
2023-05-11T05:08:15.722Z,16.30
2023-05-11T05:10:42.424Z,16.36
2023-05-11T05:13:09.187Z,16.43
2023-05-11T05:15:35.836Z,16.42
2023-05-11T05:18:02.610Z,16.49
2023-05-11T05:20:29.847Z,16.52
2023-05-11T05:22:58.861Z,16.31
2023-05-11T05:25:25.749Z,16.30
2023-05-11T05:27:52.584Z,16.23
2023-05-11T05:30:19.840Z,16.30
2023-05-11T05:32:47.799Z,16.29
2023-05-11T05:35:15.130Z,16.35
2023-05-11T05:37:43.005Z,16.42
2023-05-11T05:40:10.118Z,16.50
2023-05-11T05:42:41.949Z,16.66
2023-05-11T05:45:13.974Z,16.74
2023-05-11T05:47:41.851Z,16.85
2023-05-11T05:50:08.986Z,16.84
2023-05-11T05:52:36.248Z,16.92
2023-05-11T05:55:03.495Z,16.99
2023-05-11T05:57:30.633Z,17.09
2023-05-11T05:59:57.555Z,17.21
2023-05-11T06:02:24.252Z,17.24
2023-05-11T06:04:50.971Z,17.24
2023-05-11T06:07:17.766Z,17.40
2023-05-11T06:09:44.462Z,17.53
2023-05-11T06:12:11.166Z,17.60
2023-05-11T06:14:42.640Z,17.67
2023-05-11T06:17:09.571Z,17.62
2023-05-11T06:19:36.840Z,17.77
2023-05-11T06:22:06.346Z,17.79
2023-05-11T06:24:34.558Z,17.90
2023-05-11T06:27:01.621Z,18.00
2023-05-11T06:29:29.043Z,17.83
2023-05-11T06:31:56.635Z,17.85
2023-05-11T06:34:23.650Z,17.91
2023-05-11T06:36:51.643Z,18.09
2023-05-11T06:39:18.425Z,18.20
2023-05-11T06:41:45.260Z,18.25
2023-05-11T06:44:13.005Z,18.39
2023-05-11T06:46:43.353Z,18.43
2023-05-11T06:49:10.115Z,18.61
2023-05-11T06:51:36.822Z,18.57
2023-05-11T06:54:03.736Z,18.37
2023-05-11T06:56:31.850Z,18.46
2023-05-11T06:58:58.715Z,18.63
2023-05-11T07:01:25.460Z,18.96
2023-05-11T07:03:54.979Z,19.15
2023-05-11T07:06:21.756Z,19.26
2023-05-11T07:08:48.490Z,19.28
2023-05-11T07:11:15.534Z,19.62
2023-05-11T07:13:42.411Z,19.69
2023-05-11T07:16:09.106Z,19.77
2023-05-11T07:18:35.754Z,19.88
2023-05-11T07:21:02.441Z,19.98
2023-05-11T07:23:29.076Z,20.54
2023-05-11T07:25:57.467Z,20.73
2023-05-11T07:28:24.568Z,20.88
2023-05-11T07:30:51.426Z,21.04
2023-05-11T07:33:18.123Z,21.19
2023-05-11T07:35:44.899Z,21.00
2023-05-11T07:38:13.366Z,20.89
2023-05-11T07:40:40.199Z,20.83
2023-05-11T07:43:06.912Z,20.82
2023-05-11T07:45:33.625Z,20.59
2023-05-11T07:48:00.377Z,20.82
2023-05-11T07:50:27.330Z,20.64
2023-05-11T07:52:54.198Z,20.83
2023-05-11T07:55:24.843Z,21.08
2023-05-11T07:57:53.167Z,21.24
2023-05-11T08:00:21.071Z,21.46
2023-05-11T08:02:48.243Z,21.97
2023-05-11T08:05:15.124Z,22.10
2023-05-11T08:07:41.886Z,22.36
2023-05-11T08:10:09.241Z,22.55
2023-05-11T08:12:36.867Z,22.46
2023-05-11T08:15:04.578Z,22.32
2023-05-11T08:17:31.854Z,22.12
2023-05-11T08:19:58.519Z,21.94
2023-05-11T08:22:25.119Z,21.84
2023-05-11T08:24:51.789Z,22.00
2023-05-11T08:27:18.496Z,21.86
2023-05-11T08:29:45.306Z,21.74
2023-05-11T08:32:11.960Z,21.02
2023-05-11T08:34:38.730Z,21.31
2023-05-11T08:37:05.544Z,21.61
2023-05-11T08:39:46.525Z,22.02
2023-05-11T08:42:16.512Z,22.03
2023-05-11T08:44:44.237Z,21.83
2023-05-11T08:47:22.680Z,21.67
2023-05-11T08:49:52.396Z,21.44
2023-05-11T08:52:19.344Z,21.95
2023-05-11T08:54:46.721Z,21.80
2023-05-11T08:57:14.451Z,21.90
2023-05-11T08:59:44.457Z,21.75
2023-05-11T09:02:15.802Z,21.35
2023-05-11T09:04:43.132Z,21.45
2023-05-11T09:07:12.020Z,21.51
2023-05-11T09:09:41.433Z,21.02
2023-05-11T09:12:09.682Z,21.15
2023-05-11T09:14:36.551Z,21.28
2023-05-11T09:17:04.370Z,21.70
2023-05-11T09:19:31.542Z,21.91
2023-05-11T09:22:01.200Z,21.47
2023-05-11T09:24:28.320Z,21.57
2023-05-11T09:27:11.777Z,21.86
2023-05-11T09:29:38.462Z,22.02
2023-05-11T09:32:05.581Z,22.27
2023-05-11T09:34:32.283Z,21.91
2023-05-11T09:36:58.990Z,22.06
2023-05-11T09:39:44.730Z,22.00
2023-05-11T09:42:23.656Z,21.90
2023-05-11T09:44:50.396Z,22.25
2023-05-11T09:47:18.914Z,22.37
2023-05-11T09:49:47.062Z,22.67
2023-05-11T09:52:16.131Z,23.12
2023-05-11T09:54:45.157Z,23.28
2023-05-11T09:57:31.153Z,23.73
2023-05-11T09:59:59.787Z,23.07
2023-05-11T10:02:29.465Z,22.67
2023-05-11T10:05:00.982Z,22.03
2023-05-11T10:07:31.745Z,21.39
2023-05-11T10:10:01.473Z,20.69
2023-05-11T10:12:29.221Z,20.67
2023-05-11T10:15:02.770Z,20.75
2023-05-11T10:17:31.755Z,20.63
2023-05-11T10:19:59.938Z,20.62
2023-05-11T10:22:29.300Z,20.60
2023-05-11T10:24:59.877Z,20.32
2023-05-11T10:27:27.367Z,20.13
2023-05-11T10:29:54.189Z,20.10
2023-05-11T10:32:21.202Z,19.93
2023-05-11T10:34:50.206Z,19.72
2023-05-11T10:37:17.811Z,19.90
2023-05-11T10:39:47.836Z,19.95
2023-05-11T10:42:28.810Z,20.09
2023-05-11T10:44:56.083Z,20.21
2023-05-11T10:47:32.320Z,20.41
2023-05-11T10:50:25.820Z,20.39
2023-05-11T10:53:01.812Z,20.05
2023-05-11T10:55:53.607Z,20.41
2023-05-11T10:58:31.980Z,20.36
2023-05-11T11:01:35.776Z,20.48
2023-05-11T11:04:05.414Z,20.63
2023-05-11T11:06:33.549Z,21.27
2023-05-11T11:09:02.794Z,21.06
2023-05-11T11:11:30.850Z,20.95
2023-05-11T11:13:58.977Z,21.19
2023-05-11T11:16:26.180Z,21.69
2023-05-11T11:18:52.951Z,21.49
2023-05-11T11:21:42.349Z,21.94
2023-05-11T11:24:09.093Z,22.00
2023-05-11T11:26:50.480Z,21.81
2023-05-11T11:29:17.348Z,22.33
2023-05-11T11:31:44.079Z,22.53
2023-05-11T11:34:28.825Z,22.45
2023-05-11T11:36:55.528Z,23.28
2023-05-11T11:39:25.279Z,23.70
2023-05-11T11:42:01.142Z,23.77
2023-05-11T11:44:28.258Z,23.84
2023-05-11T11:47:16.854Z,23.61
2023-05-11T11:49:46.356Z,23.47
2023-05-11T11:52:14.731Z,23.87
2023-05-11T11:54:44.185Z,23.33
2023-05-11T11:57:29.693Z,23.51
2023-05-11T11:59:56.530Z,23.41
2023-05-11T12:02:23.501Z,23.90
2023-05-11T12:05:14.221Z,23.79
2023-05-11T12:07:53.952Z,24.35
2023-05-11T12:10:22.370Z,24.09
2023-05-11T12:12:51.316Z,24.46
2023-05-11T12:15:27.321Z,24.01
2023-05-11T12:17:54.749Z,23.73
2023-05-11T12:20:22.022Z,23.56
2023-05-11T12:22:49.876Z,23.34
2023-05-11T12:25:18.154Z,23.42
2023-05-11T12:27:50.585Z,23.51
2023-05-11T12:30:25.203Z,23.22
2023-05-11T12:35:25.250Z,23.63
2023-05-11T12:37:52.151Z,23.94
2023-05-11T12:40:19.059Z,23.84
2023-05-11T12:42:54.877Z,23.32
2023-05-11T12:45:23.494Z,23.65
2023-05-11T12:47:53.494Z,23.56
2023-05-11T12:50:21.652Z,23.47
2023-05-11T12:52:50.259Z,22.91
2023-05-11T12:55:28.811Z,22.28
2023-05-11T12:58:08.917Z,21.83
2023-05-11T13:00:35.785Z,21.63
2023-05-11T13:03:03.001Z,21.42
2023-05-11T13:05:30.224Z,21.30
2023-05-11T13:07:59.672Z,21.23
2023-05-11T13:10:26.963Z,21.21
2023-05-11T13:12:54.435Z,20.97
2023-05-11T13:15:23.352Z,20.98
2023-05-11T13:18:03.539Z,20.75
2023-05-11T13:20:32.828Z,20.94
2023-05-11T13:23:07.979Z,20.84
2023-05-11T13:25:50.416Z,21.22
2023-05-11T13:28:19.254Z,21.40
2023-05-11T13:30:46.974Z,21.41
2023-05-11T13:33:13.883Z,21.65
2023-05-11T13:35:41.765Z,21.72
2023-05-11T13:38:09.420Z,21.52
2023-05-11T13:40:36.657Z,21.88
2023-05-11T13:43:03.427Z,22.04
2023-05-11T13:45:30.184Z,21.80
2023-05-11T13:47:57.065Z,22.02
2023-05-11T13:50:25.285Z,21.92
2023-05-11T13:52:53.164Z,21.94
2023-05-11T13:55:20.943Z,22.17
2023-05-11T13:57:47.893Z,22.04
2023-05-11T14:00:15.488Z,21.89
2023-05-11T14:02:42.251Z,22.16
2023-05-11T14:05:09.257Z,22.38
2023-05-11T14:07:46.788Z,22.41
2023-05-11T14:10:15.855Z,22.36
2023-05-11T14:12:42.621Z,22.37
2023-05-11T14:15:09.846Z,22.43
2023-05-11T14:17:36.685Z,22.20
2023-05-11T14:20:04.472Z,22.31
2023-05-11T14:22:31.241Z,22.21
2023-05-11T14:24:57.914Z,22.14
2023-05-11T14:27:24.658Z,22.05
2023-05-11T14:29:52.113Z,21.99
2023-05-11T14:32:19.616Z,21.85
2023-05-11T14:34:47.823Z,21.84
2023-05-11T14:37:14.663Z,21.75
2023-05-11T14:39:41.635Z,21.83
2023-05-11T14:42:08.763Z,21.85
2023-05-11T14:44:35.636Z,21.71
2023-05-11T14:47:02.411Z,21.83
2023-05-11T14:49:29.113Z,21.65
2023-05-11T14:51:57.577Z,21.68
2023-05-11T14:54:24.309Z,21.85
2023-05-11T14:56:55.797Z,21.86
2023-05-11T14:59:24.336Z,21.80
2023-05-11T15:01:51.280Z,21.79
2023-05-11T15:04:19.459Z,21.65
2023-05-11T15:06:46.226Z,21.54
2023-05-11T15:09:13.514Z,21.75
2023-05-11T15:11:40.497Z,21.80
2023-05-11T15:14:07.212Z,21.87
2023-05-11T15:16:34.106Z,21.72
2023-05-11T15:19:00.991Z,21.94
2023-05-11T15:21:28.073Z,22.03
2023-05-11T15:23:54.796Z,21.91
2023-05-11T15:26:22.304Z,21.98
2023-05-11T15:28:49.904Z,21.85
2023-05-11T15:31:16.691Z,22.00
2023-05-11T15:33:43.666Z,22.19
2023-05-11T15:36:13.072Z,22.21
2023-05-11T15:38:40.232Z,22.15
2023-05-11T15:41:07.741Z,22.19
2023-05-11T15:43:34.829Z,22.54
2023-05-11T15:46:03.498Z,22.57
2023-05-11T15:48:30.294Z,22.72
2023-05-11T15:50:59.627Z,22.82
2023-05-11T15:53:27.204Z,22.87
2023-05-11T15:55:55.377Z,22.72
2023-05-11T15:58:23.220Z,22.63
2023-05-11T16:00:50.112Z,22.64
2023-05-11T16:03:17.150Z,22.51
2023-05-11T16:05:44.750Z,22.37
2023-05-11T16:08:12.003Z,22.54
2023-05-11T16:10:39.015Z,22.45
2023-05-11T16:13:05.820Z,22.42
2023-05-11T16:15:32.926Z,22.51
2023-05-11T16:18:01.501Z,22.41
2023-05-11T16:20:30.767Z,22.30
2023-05-11T16:22:57.457Z,22.13
2023-05-11T16:25:24.202Z,21.91
2023-05-11T16:27:50.948Z,21.74
2023-05-11T16:30:23.125Z,21.84
2023-05-11T16:32:51.592Z,21.97
2023-05-11T16:35:18.426Z,22.07
2023-05-11T16:37:46.629Z,21.86
2023-05-11T16:40:13.475Z,21.78
2023-05-11T16:42:40.136Z,21.88
2023-05-11T16:45:07.180Z,21.91
2023-05-11T16:47:33.908Z,21.83
2023-05-11T16:50:00.820Z,21.69
2023-05-11T16:52:27.593Z,21.56
2023-05-11T16:54:54.653Z,21.55
2023-05-11T16:57:22.626Z,21.55
2023-05-11T16:59:49.355Z,21.55
2023-05-11T17:02:15.981Z,21.44
2023-05-11T17:04:42.780Z,21.27
2023-05-11T17:07:11.460Z,21.09
2023-05-11T17:09:38.083Z,20.63
2023-05-11T17:12:08.389Z,20.17
2023-05-11T17:14:35.082Z,19.70
2023-05-11T17:17:04.126Z,19.47
2023-05-11T17:19:31.213Z,19.35
2023-05-11T17:21:58.672Z,19.01
2023-05-11T17:24:25.540Z,18.89
2023-05-11T17:26:52.212Z,18.96
2023-05-11T17:29:18.896Z,19.06
2023-05-11T17:31:48.636Z,19.10
2023-05-11T17:34:15.952Z,19.09
2023-05-11T17:36:43.179Z,19.03
2023-05-11T17:39:11.012Z,18.93
2023-05-11T17:41:37.835Z,18.62
2023-05-11T17:44:05.087Z,18.51
2023-05-11T17:46:31.865Z,18.49
2023-05-11T17:48:58.559Z,18.36
2023-05-11T17:51:25.250Z,18.32
2023-05-11T17:53:51.992Z,18.25
2023-05-11T17:56:19.156Z,18.21
2023-05-11T17:58:45.877Z,18.09
2023-05-11T18:01:16.703Z,17.88
2023-05-11T18:03:43.875Z,17.88
2023-05-11T18:06:10.815Z,17.86
2023-05-11T18:08:37.527Z,17.78
2023-05-11T18:11:04.607Z,17.84
2023-05-11T18:13:31.567Z,17.87
2023-05-11T18:16:01.060Z,17.86
2023-05-11T18:18:28.048Z,18.03
2023-05-11T18:20:54.903Z,18.18
2023-05-11T18:23:21.614Z,18.31
2023-05-11T18:25:48.519Z,18.40
2023-05-11T18:28:15.212Z,18.43
2023-05-11T18:30:41.840Z,18.39
2023-05-11T18:33:08.587Z,18.36
2023-05-11T18:35:35.998Z,18.34
2023-05-11T18:38:04.621Z,18.34
2023-05-11T18:40:31.388Z,18.22
2023-05-11T18:42:58.012Z,18.19
2023-05-11T18:45:25.038Z,18.24
2023-05-11T18:47:51.730Z,18.31
2023-05-11T18:50:18.747Z,18.36
2023-05-11T18:52:45.707Z,18.34
2023-05-11T18:55:12.775Z,18.24
2023-05-11T18:57:40.438Z,18.20
2023-05-11T19:00:07.921Z,18.11
2023-05-11T19:02:34.859Z,18.04
2023-05-11T19:05:01.635Z,18.09
2023-05-11T19:07:28.556Z,18.13
2023-05-11T19:09:55.391Z,18.05
2023-05-11T19:12:22.468Z,18.06
2023-05-11T19:14:49.116Z,18.10
2023-05-11T19:17:15.802Z,18.07
2023-05-11T19:19:42.454Z,18.00
2023-05-11T19:22:09.428Z,17.97
2023-05-11T19:24:36.208Z,17.96
2023-05-11T19:27:07.113Z,17.95
2023-05-11T19:29:35.375Z,17.88
2023-05-11T19:32:02.878Z,17.86
2023-05-11T19:34:29.646Z,17.84
2023-05-11T19:36:56.357Z,17.87
2023-05-11T19:39:23.148Z,17.79
2023-05-11T19:41:49.868Z,17.78
2023-05-11T19:44:16.541Z,17.82
2023-05-11T19:46:47.059Z,17.82
2023-05-11T19:49:15.181Z,17.74
2023-05-11T19:51:42.403Z,17.65
2023-05-11T19:54:09.503Z,17.67
2023-05-11T19:56:36.205Z,17.71
2023-05-11T19:59:03.781Z,17.75
2023-05-11T20:01:30.642Z,17.85
2023-05-11T20:03:57.494Z,17.89
2023-05-11T20:06:25.450Z,17.96
2023-05-11T20:08:52.726Z,17.93
2023-05-11T20:11:19.658Z,17.83
2023-05-11T20:13:47.815Z,17.78
2023-05-11T20:16:14.963Z,17.90
2023-05-11T20:18:41.844Z,17.99
2023-05-11T20:21:08.635Z,17.96
2023-05-11T20:23:37.220Z,17.86
2023-05-11T20:26:04.600Z,17.92
2023-05-11T20:28:31.854Z,17.90
2023-05-11T20:30:59.048Z,17.84
2023-05-11T20:35:55.512Z,17.79
2023-05-11T20:38:22.408Z,17.76
2023-05-11T20:40:49.065Z,17.76
2023-05-11T20:43:16.583Z,17.69
2023-05-11T20:45:43.673Z,17.63
2023-05-11T20:48:10.923Z,17.65
2023-05-11T20:50:39.294Z,17.62
2023-05-11T20:53:06.118Z,17.71
2023-05-11T20:55:33.008Z,17.71
2023-05-11T20:57:59.832Z,17.74
2023-05-11T21:00:26.415Z,17.66
2023-05-11T21:02:53.203Z,17.61
2023-05-11T21:05:20.080Z,17.53
2023-05-11T21:07:46.877Z,17.50
2023-05-11T21:10:14.012Z,17.49
2023-05-11T21:12:40.669Z,17.53
2023-05-11T21:15:07.889Z,17.47
2023-05-11T21:17:35.667Z,17.49
2023-05-11T21:20:05.136Z,17.51
2023-05-11T21:22:33.362Z,17.55
2023-05-11T21:25:00.237Z,17.50
2023-05-11T21:27:26.974Z,17.49
2023-05-11T21:29:53.632Z,17.47
2023-05-11T21:32:20.228Z,17.46
2023-05-11T21:34:46.875Z,17.46
2023-05-11T21:37:14.687Z,17.53
2023-05-11T21:39:41.581Z,17.50
2023-05-11T21:42:08.187Z,17.41
2023-05-11T21:44:34.837Z,17.45
2023-05-11T21:47:01.498Z,17.48
2023-05-11T21:49:28.319Z,17.49
2023-05-11T21:51:55.046Z,17.49
2023-05-11T21:54:22.389Z,17.60
2023-05-11T21:56:50.169Z,17.62
2023-05-11T21:59:17.773Z,17.55
2023-05-11T22:01:45.360Z,17.47
2023-05-11T22:04:12.068Z,17.51
2023-05-11T22:06:38.862Z,17.57
2023-05-11T22:09:05.480Z,17.52
2023-05-11T22:11:33.906Z,17.45
2023-05-11T22:14:00.709Z,17.46
2023-05-11T22:16:27.662Z,17.51
2023-05-11T22:18:54.327Z,17.43
2023-05-11T22:21:21.102Z,17.40
2023-05-11T22:23:47.853Z,17.26
2023-05-11T22:26:14.588Z,17.23
2023-05-11T22:28:41.301Z,17.25
2023-05-11T22:31:08.155Z,17.29
2023-05-11T22:33:34.891Z,17.27
2023-05-11T22:36:01.500Z,17.35
2023-05-11T22:38:28.427Z,17.32
2023-05-11T22:40:55.065Z,17.39
2023-05-11T22:43:21.929Z,17.36
2023-05-11T22:45:49.345Z,17.31
2023-05-11T22:48:16.643Z,17.31
2023-05-11T22:50:47.328Z,17.33
2023-05-11T22:53:14.757Z,17.37
2023-05-11T22:55:42.071Z,17.34
2023-05-11T22:58:08.684Z,17.40
2023-05-11T23:00:35.804Z,17.37
2023-05-11T23:03:03.807Z,17.38
2023-05-11T23:05:30.702Z,17.31
2023-05-11T23:07:59.712Z,17.32
2023-05-11T23:10:28.492Z,17.29
2023-05-11T23:12:55.879Z,17.29
2023-05-11T23:15:22.555Z,17.31
2023-05-11T23:17:49.262Z,17.29
2023-05-11T23:20:16.840Z,17.29
2023-05-11T23:22:43.683Z,17.29
2023-05-11T23:25:10.760Z,17.22
2023-05-11T23:27:37.487Z,17.26
2023-05-11T23:30:04.945Z,17.27
2023-05-11T23:32:31.859Z,17.24
2023-05-11T23:34:58.711Z,17.19
2023-05-11T23:37:25.541Z,17.20
2023-05-11T23:39:52.699Z,17.24
2023-05-11T23:42:19.445Z,17.20
2023-05-11T23:44:46.272Z,17.21
2023-05-11T23:47:12.988Z,17.21
2023-05-11T23:49:39.617Z,17.16
2023-05-11T23:52:06.563Z,17.19
2023-05-11T23:54:33.899Z,17.11
2023-05-11T23:57:02.047Z,17.16
2023-05-11T23:59:28.734Z,17.15
